地図

経路データ

SID SEASON NUMBER BASIN SUBBASIN NAME ISO_TIME NATURE LAT LON WMO_WIND WMO_PRES WMO_AGENCY TRACK_TYPE DIST2LAND LANDFALL IFLAG USA_AGENCY USA_ATCF_ID USA_LAT USA_LON USA_RECORD USA_STATUS USA_WIND USA_PRES USA_SSHS USA_R34_NE USA_R34_SE USA_R34_SW USA_R34_NW USA_R50_NE USA_R50_SE USA_R50_SW USA_R50_NW USA_R64_NE USA_R64_SE USA_R64_SW USA_R64_NW USA_POCI USA_ROCI USA_RMW USA_EYE TOKYO_LAT TOKYO_LON TOKYO_GRADE TOKYO_WIND TOKYO_PRES TOKYO_R50_DIR TOKYO_R50_LONG TOKYO_R50_SHORT TOKYO_R30_DIR TOKYO_R30_LONG TOKYO_R30_SHORT TOKYO_LAND CMA_LAT CMA_LON CMA_CAT CMA_WIND CMA_PRES HKO_LAT HKO_LON HKO_CAT HKO_WIND HKO_PRES NEWDELHI_LAT NEWDELHI_LON NEWDELHI_GRADE NEWDELHI_WIND NEWDELHI_PRES NEWDELHI_CI NEWDELHI_DP NEWDELHI_POCI REUNION_LAT REUNION_LON REUNION_TYPE REUNION_WIND REUNION_PRES REUNION_TNUM REUNION_CI REUNION_RMW REUNION_R34_NE REUNION_R34_SE REUNION_R34_SW REUNION_R34_NW REUNION_R50_NE REUNION_R50_SE REUNION_R50_SW REUNION_R50_NW REUNION_R64_NE REUNION_R64_SE REUNION_R64_SW REUNION_R64_NW BOM_LAT BOM_LON BOM_TYPE BOM_WIND BOM_PRES BOM_TNUM BOM_CI BOM_RMW BOM_R34_NE BOM_R34_SE BOM_R34_SW BOM_R34_NW BOM_R50_NE BOM_R50_SE BOM_R50_SW BOM_R50_NW BOM_R64_NE BOM_R64_SE BOM_R64_SW BOM_R64_NW BOM_ROCI BOM_POCI BOM_EYE BOM_POS_METHOD BOM_PRES_METHOD NADI_LAT NADI_LON NADI_CAT NADI_WIND NADI_PRES WELLINGTON_LAT WELLINGTON_LON WELLINGTON_WIND WELLINGTON_PRES DS824_LAT DS824_LON DS824_STAGE DS824_WIND DS824_PRES TD9636_LAT TD9636_LON TD9636_STAGE TD9636_WIND TD9636_PRES TD9635_LAT TD9635_LON TD9635_WIND TD9635_PRES TD9635_ROCI NEUMANN_LAT NEUMANN_LON NEUMANN_CLASS NEUMANN_WIND NEUMANN_PRES MLC_LAT MLC_LON MLC_CLASS MLC_WIND MLC_PRES USA_GUST BOM_GUST BOM_GUST_PER REUNION_GUST REUNION_GUST_PER USA_SEAHGT USA_SEARAD_NE USA_SEARAD_SE USA_SEARAD_SW USA_SEARAD_NW STORM_SPEED STORM_DIR
1861101S09083 1861 14 SI MM NOT_NAMED 1861-04-10 18:00:00 NR -9.30000 83.1000 main 1725 1719 __________O___ -1 -9.30000 83.1000 7 9 266
1861101S09083 1861 14 SI MM NOT_NAMED 1861-04-10 21:00:00 NR -9.32710 82.6610 main 1719 1713 __________P___ -1 -9.32710 82.6610 7 9 266
1861101S09083 1861 14 SI MM NOT_NAMED 1861-04-11 00:00:00 NR -9.35312 82.2376 main 1723 1720 __________P___ -1 -9.35312 82.2376 7 8 266
1861101S09083 1861 14 SI MM NOT_NAMED 1861-04-11 03:00:00 NR -9.37755 81.8454 main 1719 1717 __________P___ -1 -9.37755 81.8454 7 7 266
1861101S09083 1861 14 SI MM NOT_NAMED 1861-04-11 06:00:00 NR -9.40000 81.5000 main 1717 1715 __________O___ -1 -9.40000 81.5000 7 6 266
1861101S09083 1861 14 SI MM NOT_NAMED 1861-04-11 09:00:00 NR -9.42067 81.2109 main 1715 1714 __________P___ -1 -9.42067 81.2109 7 5 265
1861101S09083 1861 14 SI MM NOT_NAMED 1861-04-11 12:00:00 NR -9.44217 80.9624 main 1714 1714 __________P___ -1 -9.44217 80.9624 7 5 264
1861101S09083 1861 14 SI MM NOT_NAMED 1861-04-11 15:00:00 NR -9.46759 80.7328 main 1725 1725 __________P___ -1 -9.46759 80.7328 7 5 263
1861101S09083 1861 14 SI MM NOT_NAMED 1861-04-11 18:00:00 NR -9.50000 80.5000 main 1725 1725 __________O___ -1 -9.50000 80.5000 7 5 261
1861101S09083 1861 14 SI MM NOT_NAMED 1861-04-11 21:00:00 NR -9.54277 80.2322 main 1726 1726 __________P___ -1 -9.54277 80.2322 7 5 260
1861101S09083 1861 14 SI MM NOT_NAMED 1861-04-12 00:00:00 NR -9.59245 79.9575 main 1738 1738 __________P___ -1 -9.59245 79.9575 7 6 259
1861101S09083 1861 14 SI MM NOT_NAMED 1861-04-12 03:00:00 NR -9.64589 79.6791 main 1739 1739 __________P___ -1 -9.64589 79.6791 7 6 259
1861101S09083 1861 14 SI MM NOT_NAMED 1861-04-12 06:00:00 NR -9.70000 79.4000 main 1753 1753 __________O___ -1 -9.70000 79.4000 7 6 260
1861101S09083 1861 14 SI MM NOT_NAMED 1861-04-12 09:00:00 NR -9.74585 79.1290 main 1755 1755 __________P___ -1 -9.74585 79.1290 7 5 260
1861101S09083 1861 14 SI MM NOT_NAMED 1861-04-12 12:00:00 NR -9.79237 78.8574 main 1769 1769 __________P___ -1 -9.79237 78.8574 7 5 260
1861101S09083 1861 14 SI MM NOT_NAMED 1861-04-12 15:00:00 NR -9.84272 78.5821 main 1773 1773 __________P___ -1 -9.84272 78.5821 7 6 259
1861101S09083 1861 14 SI MM NOT_NAMED 1861-04-12 18:00:00 NR -9.90000 78.3000 main 1788 1788 __________O___ -1 -9.90000 78.3000 7 6 257
1861101S09083 1861 14 SI MM NOT_NAMED 1861-04-12 21:00:00 NR -9.96765 78.0234 main 1804 1804 __________P___ -1 -9.96765 78.0234 7 6 256
1861101S09083 1861 14 SI MM NOT_NAMED 1861-04-13 00:00:00 NR -10.0422 77.7374 main 1810 1810 __________P___ -1 -10.0422 77.7374 7 6 255
1861101S09083 1861 14 SI MM NOT_NAMED 1861-04-13 03:00:00 NR -10.1207 77.4327 main 1827 1827 __________P___ -1 -10.1207 77.4327 7 6 256
1861101S09083 1861 14 SI MM NOT_NAMED 1861-04-13 06:00:00 NR -10.2000 77.1000 main 1845 1845 __________O___ -1 -10.2000 77.1000 7 7 258
1861101S09083 1861 14 SI MM NOT_NAMED 1861-04-13 09:00:00 NR -10.2629 76.7246 main 1865 1865 __________P___ -1 -10.2629 76.7246 7 8 261
1861101S09083 1861 14 SI MM NOT_NAMED 1861-04-13 12:00:00 NR -10.3276 76.3223 main 1876 1876 __________P___ -1 -10.3276 76.3223 7 8 260
1861101S09083 1861 14 SI MM NOT_NAMED 1861-04-13 15:00:00 NR -10.4035 75.9089 main 1899 1899 __________P___ -1 -10.4035 75.9089 7 8 258
1861101S09083 1861 14 SI MM NOT_NAMED 1861-04-13 18:00:00 NR -10.5000 75.5000 main 1922 1922 __________O___ -1 -10.5000 75.5000 7 8 254
1861101S09083 1861 14 SI MM NOT_NAMED 1861-04-13 21:00:00 NR -10.6200 75.1379 main 1946 1946 __________P___ -1 -10.6200 75.1379 7 8 250
1861101S09083 1861 14 SI MM NOT_NAMED 1861-04-14 00:00:00 NR -10.7620 74.7797 main 1978 1978 __________P___ -1 -10.7620 74.7797 7 8 247
1861101S09083 1861 14 SI MM NOT_NAMED 1861-04-14 03:00:00 NR -10.9230 74.4066 main 2003 2003 __________P___ -1 -10.9230 74.4066 7 8 246
1861101S09083 1861 14 SI MM NOT_NAMED 1861-04-14 06:00:00 NR -11.1000 74.0000 main 2013 1964 __________O___ -1 -11.1000 74.0000 7 9 248
1861101S09083 1861 14 SI MM NOT_NAMED 1861-04-14 09:00:00 NR -11.2776 73.5277 main 1955 1906 __________P___ -1 -11.2776 73.5277 7 10 249
1861101S09083 1861 14 SI MM NOT_NAMED 1861-04-14 12:00:00 NR -11.4702 73.0224 main 1897 1839 __________P___ -1 -11.4702 73.0224 7 11 248
1861101S09083 1861 14 SI MM NOT_NAMED 1861-04-14 15:00:00 NR -11.6776 72.5058 main 1839 1781 __________P___ -1 -11.6776 72.5058 7 11 247
1861101S09083 1861 14 SI MM NOT_NAMED 1861-04-14 18:00:00 NR -11.9000 72.0000 main 1781 1723 __________O___ -1 -11.9000 72.0000 7 11 245
1861101S09083 1861 14 SI MM NOT_NAMED 1861-04-14 21:00:00 NR -12.1437 71.5033 main 1723 1669 __________P___ -1 -12.1437 71.5033 7 11 242
1861101S09083 1861 14 SI MM NOT_NAMED 1861-04-15 00:00:00 NR -12.4000 71.0253 main 1659 1611 __________P___ -1 -12.4000 71.0253 7 10 240
1861101S09083 1861 14 SI MM NOT_NAMED 1861-04-15 03:00:00 NR -12.6563 70.5846 main 1605 1556 __________P___ -1 -12.6563 70.5846 7 10 238
1861101S09083 1861 14 SI MM NOT_NAMED 1861-04-15 06:00:00 NR -12.9000 70.2000 main 1556 1517 __________O___ -1 -12.9000 70.2000 7 8 236
1861101S09083 1861 14 SI MM NOT_NAMED 1861-04-15 09:00:00 NR -13.1221 69.8840 main 1517 1477 __________P___ -1 -13.1221 69.8840 7 7 233
1861101S09083 1861 14 SI MM NOT_NAMED 1861-04-15 12:00:00 NR -13.3295 69.6246 main 1477 1447 __________P___ -1 -13.3295 69.6246 7 6 229
1861101S09083 1861 14 SI MM NOT_NAMED 1861-04-15 15:00:00 NR -13.5222 69.4029 main 1447 1417 __________P___ -1 -13.5222 69.4029 7 6 228
1861101S09083 1861 14 SI MM NOT_NAMED 1861-04-15 18:00:00 NR -13.7000 69.2000 main 1417 1392 __________O___ -1 -13.7000 69.2000 7 5 231
1861101S09083 1861 14 SI MM NOT_NAMED 1861-04-15 21:00:00 NR -13.8480 68.9894 main 1392 1362 __________P___ -1 -13.8480 68.9894 7 5 234
1861101S09083 1861 14 SI MM NOT_NAMED 1861-04-16 00:00:00 NR -13.9848 68.7920 main 1362 1338 __________P___ -1 -13.9848 68.7920 7 5 234
1861101S09083 1861 14 SI MM NOT_NAMED 1861-04-16 03:00:00 NR -14.1292 68.5987 main 1338 1308 __________P___ -1 -14.1292 68.5987 7 5 230
1861101S09083 1861 14 SI MM NOT_NAMED 1861-04-16 06:00:00 NR -14.3000 68.4000 main 1308 1278 __________O___ -1 -14.3000 68.4000 7 6 226
1861101S09083 1861 14 SI MM NOT_NAMED 1861-04-16 09:00:00 NR -14.5253 68.1742 main 1278 1242 __________P___ -1 -14.5253 68.1742 7 7 223
1861101S09083 1861 14 SI MM NOT_NAMED 1861-04-16 12:00:00 NR -14.7775 67.9427 main 1233 1203 __________P___ -1 -14.7775 67.9427 7 7 221
1861101S09083 1861 14 SI MM NOT_NAMED 1861-04-16 15:00:00 NR -15.0410 67.7148 main 1203 1168 __________P___ -1 -15.0410 67.7148 7 7 219
1861101S09083 1861 14 SI MM NOT_NAMED 1861-04-16 18:00:00 NR -15.3000 67.5000 main 1168 1138 __________O___ -1 -15.3000 67.5000 7 6 218
1861101S09083 1861 14 SI MM NOT_NAMED 1861-04-16 21:00:00 NR -15.5425 67.3053 main 1138 1104 __________P___ -1 -15.5425 67.3053 7 6 217
1861101S09083 1861 14 SI MM NOT_NAMED 1861-04-17 00:00:00 NR -15.7700 67.1276 main 1104 1084 __________P___ -1 -15.7700 67.1276 7 6 217
1861101S09083 1861 14 SI MM NOT_NAMED 1861-04-17 03:00:00 NR -15.9875 66.9611 main 1084 1055 __________P___ -1 -15.9875 66.9611 7 5 216
1861101S09083 1861 14 SI MM NOT_NAMED 1861-04-17 06:00:00 NR -16.2000 66.8000 main 1055 __________O___ -1 -16.2000 66.8000 7 5 216

IBTrACS Databaseについて

本データベースは、米国NOAAが公開する1842年以降の世界の熱帯低気圧のベストトラックデータアーカイブInternational Best Track Archive for Climate Stewardship (IBTrACS)を、ウェブで閲覧しやすい形式に変換したものです。

最終更新日:2021-10-21